sensor_id;sensor_type;location;lat;lon;timestamp;P1;P2;P0
47810;PMS5003;33575;52.600;7.318;2023-04-19T00:02:27;23;22;
47810;PMS5003;33575;52.600;7.318;2023-04-19T00:04:57;22;19;
47810;PMS5003;33575;52.600;7.318;2023-04-19T00:07:28;21;19;
47810;PMS5003;33575;52.600;7.318;2023-04-19T00:09:58;18;18;
47810;PMS5003;33575;52.600;7.318;2023-04-19T00:12:29;21;19;
47810;PMS5003;33575;52.600;7.318;2023-04-19T00:14:59;21;20;
47810;PMS5003;33575;52.600;7.318;2023-04-19T00:17:30;21;19;
47810;PMS5003;33575;52.600;7.318;2023-04-19T00:20:00;19;19;
47810;PMS5003;33575;52.600;7.318;2023-04-19T00:22:30;23;22;
47810;PMS5003;33575;52.600;7.318;2023-04-19T00:25:01;19;18;
47810;PMS5003;33575;52.600;7.318;2023-04-19T00:27:31;17;17;
47810;PMS5003;33575;52.600;7.318;2023-04-19T00:30:02;19;18;
47810;PMS5003;33575;52.600;7.318;2023-04-19T00:32:32;17;15;
47810;PMS5003;33575;52.600;7.318;2023-04-19T00:35:02;20;16;
47810;PMS5003;33575;52.600;7.318;2023-04-19T00:37:33;19;18;
47810;PMS5003;33575;52.600;7.318;2023-04-19T00:40:03;17;17;
47810;PMS5003;33575;52.600;7.318;2023-04-19T00:42:34;18;16;
47810;PMS5003;33575;52.600;7.318;2023-04-19T00:45:04;19;17;
47810;PMS5003;33575;52.600;7.318;2023-04-19T00:47:34;17;17;
47810;PMS5003;33575;52.600;7.318;2023-04-19T00:50:05;16;16;
47810;PMS5003;33575;52.600;7.318;2023-04-19T00:52:35;17;17;
47810;PMS5003;33575;52.600;7.318;2023-04-19T00:55:06;16;16;
47810;PMS5003;33575;52.600;7.318;2023-04-19T00:57:37;16;15;
47810;PMS5003;33575;52.600;7.318;2023-04-19T01:00:07;15;15;
47810;PMS5003;33575;52.600;7.318;2023-04-19T01:02:38;18;17;
47810;PMS5003;33575;52.600;7.318;2023-04-19T01:05:08;18;16;
47810;PMS5003;33575;52.600;7.318;2023-04-19T01:07:38;19;18;
47810;PMS5003;33575;52.600;7.318;2023-04-19T01:10:09;14;14;
47810;PMS5003;33575;52.600;7.318;2023-04-19T01:12:39;21;18;
47810;PMS5003;33575;52.600;7.318;2023-04-19T01:15:09;17;17;
47810;PMS5003;33575;52.600;7.318;2023-04-19T01:17:40;23;21;
47810;PMS5003;33575;52.600;7.318;2023-04-19T01:20:10;19;18;
47810;PMS5003;33575;52.600;7.318;2023-04-19T01:22:41;20;19;
47810;PMS5003;33575;52.600;7.318;2023-04-19T01:25:11;17;17;
47810;PMS5003;33575;52.600;7.318;2023-04-19T01:27:42;17;16;
47810;PMS5003;33575;52.600;7.318;2023-04-19T01:30:12;21;21;
47810;PMS5003;33575;52.600;7.318;2023-04-19T01:32:43;14;14;
47810;PMS5003;33575;52.600;7.318;2023-04-19T01:35:13;20;17;
47810;PMS5003;33575;52.600;7.318;2023-04-19T01:37:44;17;17;
47810;PMS5003;33575;52.600;7.318;2023-04-19T01:40:15;18;17;
47810;PMS5003;33575;52.600;7.318;2023-04-19T01:42:45;19;17;
47810;PMS5003;33575;52.600;7.318;2023-04-19T01:45:16;16;16;
47810;PMS5003;33575;52.600;7.318;2023-04-19T01:47:46;24;21;
47810;PMS5003;33575;52.600;7.318;2023-04-19T01:50:16;17;17;
47810;PMS5003;33575;52.600;7.318;2023-04-19T01:52:47;20;19;
47810;PMS5003;33575;52.600;7.318;2023-04-19T01:55:17;19;18;
47810;PMS5003;33575;52.600;7.318;2023-04-19T01:57:47;19;18;
47810;PMS5003;33575;52.600;7.318;2023-04-19T02:00:18;18;18;
47810;PMS5003;33575;52.600;7.318;2023-04-19T02:02:49;21;19;
47810;PMS5003;33575;52.600;7.318;2023-04-19T02:05:19;18;18;
47810;PMS5003;33575;52.600;7.318;2023-04-19T02:07:49;22;22;
47810;PMS5003;33575;52.600;7.318;2023-04-19T02:10:20;18;17;
47810;PMS5003;33575;52.600;7.318;2023-04-19T02:12:51;20;19;
47810;PMS5003;33575;52.600;7.318;2023-04-19T02:15:21;25;24;
47810;PMS5003;33575;52.600;7.318;2023-04-19T02:17:52;16;15;
47810;PMS5003;33575;52.600;7.318;2023-04-19T02:20:23;23;21;
47810;PMS5003;33575;52.600;7.318;2023-04-19T02:22:53;15;15;
47810;PMS5003;33575;52.600;7.318;2023-04-19T02:25:24;17;17;
47810;PMS5003;33575;52.600;7.318;2023-04-19T02:27:54;19;18;
47810;PMS5003;33575;52.600;7.318;2023-04-19T02:30:24;18;18;
47810;PMS5003;33575;52.600;7.318;2023-04-19T02:32:55;18;17;
47810;PMS5003;33575;52.600;7.318;2023-04-19T02:35:25;17;17;
47810;PMS5003;33575;52.600;7.318;2023-04-19T02:37:56;20;19;
47810;PMS5003;33575;52.600;7.318;2023-04-19T02:40:27;14;14;
47810;PMS5003;33575;52.600;7.318;2023-04-19T02:42:57;17;17;
47810;PMS5003;33575;52.600;7.318;2023-04-19T02:45:28;19;18;
47810;PMS5003;33575;52.600;7.318;2023-04-19T02:47:58;17;16;
47810;PMS5003;33575;52.600;7.318;2023-04-19T02:50:28;20;19;
47810;PMS5003;33575;52.600;7.318;2023-04-19T02:52:59;17;16;
47810;PMS5003;33575;52.600;7.318;2023-04-19T02:55:29;14;14;
47810;PMS5003;33575;52.600;7.318;2023-04-19T02:58:00;15;15;
47810;PMS5003;33575;52.600;7.318;2023-04-19T03:00:31;14;13;
47810;PMS5003;33575;52.600;7.318;2023-04-19T03:03:02;14;14;
47810;PMS5003;33575;52.600;7.318;2023-04-19T03:05:32;18;14;
47810;PMS5003;33575;52.600;7.318;2023-04-19T03:08:02;13;13;
47810;PMS5003;33575;52.600;7.318;2023-04-19T03:10:33;14;13;
47810;PMS5003;33575;52.600;7.318;2023-04-19T03:13:04;15;14;
47810;PMS5003;33575;52.600;7.318;2023-04-19T03:15:34;16;15;
47810;PMS5003;33575;52.600;7.318;2023-04-19T03:18:05;18;15;
47810;PMS5003;33575;52.600;7.318;2023-04-19T03:20:35;13;13;
47810;PMS5003;33575;52.600;7.318;2023-04-19T03:23:06;16;15;
47810;PMS5003;33575;52.600;7.318;2023-04-19T03:25:37;17;15;
47810;PMS5003;33575;52.600;7.318;2023-04-19T03:28:07;16;15;
47810;PMS5003;33575;52.600;7.318;2023-04-19T03:30:38;15;14;
47810;PMS5003;33575;52.600;7.318;2023-04-19T03:33:09;14;13;
47810;PMS5003;33575;52.600;7.318;2023-04-19T03:35:39;14;14;
47810;PMS5003;33575;52.600;7.318;2023-04-19T03:38:10;17;14;
47810;PMS5003;33575;52.600;7.318;2023-04-19T03:40:40;15;15;
47810;PMS5003;33575;52.600;7.318;2023-04-19T03:43:11;16;15;
47810;PMS5003;33575;52.600;7.318;2023-04-19T03:45:41;14;12;
47810;PMS5003;33575;52.600;7.318;2023-04-19T03:48:12;14;13;
47810;PMS5003;33575;52.600;7.318;2023-04-19T03:50:42;15;13;
47810;PMS5003;33575;52.600;7.318;2023-04-19T03:53:13;14;13;
47810;PMS5003;33575;52.600;7.318;2023-04-19T03:55:43;13;12;
47810;PMS5003;33575;52.600;7.318;2023-04-19T03:58:14;14;14;
47810;PMS5003;33575;52.600;7.318;2023-04-19T04:00:45;15;15;
47810;PMS5003;33575;52.600;7.318;2023-04-19T04:03:15;18;18;
47810;PMS5003;33575;52.600;7.318;2023-04-19T04:05:46;19;16;
47810;PMS5003;33575;52.600;7.318;2023-04-19T04:08:16;14;13;
47810;PMS5003;33575;52.600;7.318;2023-04-19T04:10:46;14;13;
47810;PMS5003;33575;52.600;7.318;2023-04-19T04:13:17;17;11;
47810;PMS5003;33575;52.600;7.318;2023-04-19T04:15:48;16;16;
47810;PMS5003;33575;52.600;7.318;2023-04-19T04:18:18;14;13;
47810;PMS5003;33575;52.600;7.318;2023-04-19T04:20:49;11;11;
47810;PMS5003;33575;52.600;7.318;2023-04-19T04:23:20;14;14;
47810;PMS5003;33575;52.600;7.318;2023-04-19T04:25:55;15;13;
47810;PMS5003;33575;52.600;7.318;2023-04-19T04:28:21;12;12;
47810;PMS5003;33575;52.600;7.318;2023-04-19T04:30:51;12;11;
47810;PMS5003;33575;52.600;7.318;2023-04-19T04:33:23;15;14;
47810;PMS5003;33575;52.600;7.318;2023-04-19T04:35:53;12;12;
47810;PMS5003;33575;52.600;7.318;2023-04-19T04:38:25;11;11;
47810;PMS5003;33575;52.600;7.318;2023-04-19T04:40:54;13;12;
47810;PMS5003;33575;52.600;7.318;2023-04-19T04:43:25;11;11;
47810;PMS5003;33575;52.600;7.318;2023-04-19T04:45:56;16;13;
47810;PMS5003;33575;52.600;7.318;2023-04-19T04:48:26;11;11;
47810;PMS5003;33575;52.600;7.318;2023-04-19T04:50:57;10;10;
47810;PMS5003;33575;52.600;7.318;2023-04-19T04:53:28;13;12;
47810;PMS5003;33575;52.600;7.318;2023-04-19T04:55:58;12;11;
47810;PMS5003;33575;52.600;7.318;2023-04-19T04:58:29;12;10;
47810;PMS5003;33575;52.600;7.318;2023-04-19T05:01:00;13;13;
47810;PMS5003;33575;52.600;7.318;2023-04-19T05:03:30;14;13;
47810;PMS5003;33575;52.600;7.318;2023-04-19T05:06:01;11;10;
47810;PMS5003;33575;52.600;7.318;2023-04-19T05:08:32;14;13;
47810;PMS5003;33575;52.600;7.318;2023-04-19T05:11:02;19;19;
47810;PMS5003;33575;52.600;7.318;2023-04-19T05:13:33;11;11;
47810;PMS5003;33575;52.600;7.318;2023-04-19T05:16:04;15;13;
47810;PMS5003;33575;52.600;7.318;2023-04-19T05:18:34;14;12;
47810;PMS5003;33575;52.600;7.318;2023-04-19T05:21:05;15;13;
47810;PMS5003;33575;52.600;7.318;2023-04-19T05:23:36;13;12;
47810;PMS5003;33575;52.600;7.318;2023-04-19T05:26:06;13;12;
47810;PMS5003;33575;52.600;7.318;2023-04-19T05:28:37;13;13;
47810;PMS5003;33575;52.600;7.318;2023-04-19T05:31:07;14;12;
47810;PMS5003;33575;52.600;7.318;2023-04-19T05:33:38;14;13;
47810;PMS5003;33575;52.600;7.318;2023-04-19T05:36:09;13;13;
47810;PMS5003;33575;52.600;7.318;2023-04-19T05:38:39;12;10;
47810;PMS5003;33575;52.600;7.318;2023-04-19T05:41:10;17;16;
47810;PMS5003;33575;52.600;7.318;2023-04-19T05:43:41;12;12;
47810;PMS5003;33575;52.600;7.318;2023-04-19T05:46:11;13;12;
47810;PMS5003;33575;52.600;7.318;2023-04-19T05:48:42;12;11;
47810;PMS5003;33575;52.600;7.318;2023-04-19T05:51:12;11;11;
47810;PMS5003;33575;52.600;7.318;2023-04-19T05:53:43;14;12;
47810;PMS5003;33575;52.600;7.318;2023-04-19T05:56:14;14;14;
47810;PMS5003;33575;52.600;7.318;2023-04-19T05:58:44;18;18;
47810;PMS5003;33575;52.600;7.318;2023-04-19T06:01:15;14;13;
47810;PMS5003;33575;52.600;7.318;2023-04-19T06:03:46;13;12;
47810;PMS5003;33575;52.600;7.318;2023-04-19T06:06:16;13;12;
47810;PMS5003;33575;52.600;7.318;2023-04-19T06:08:47;10;9;
47810;PMS5003;33575;52.600;7.318;2023-04-19T06:11:23;16;15;
47810;PMS5003;33575;52.600;7.318;2023-04-19T06:13:48;12;11;
47810;PMS5003;33575;52.600;7.318;2023-04-19T06:16:19;16;16;
47810;PMS5003;33575;52.600;7.318;2023-04-19T06:18:49;10;10;
47810;PMS5003;33575;52.600;7.318;2023-04-19T06:21:20;10;10;
47810;PMS5003;33575;52.600;7.318;2023-04-19T06:23:51;12;11;
47810;PMS5003;33575;52.600;7.318;2023-04-19T06:26:21;12;11;
47810;PMS5003;33575;52.600;7.318;2023-04-19T06:28:52;13;10;
47810;PMS5003;33575;52.600;7.318;2023-04-19T06:31:23;12;11;
47810;PMS5003;33575;52.600;7.318;2023-04-19T06:33:53;17;15;
47810;PMS5003;33575;52.600;7.318;2023-04-19T06:36:24;9;9;
47810;PMS5003;33575;52.600;7.318;2023-04-19T06:38:54;12;11;
47810;PMS5003;33575;52.600;7.318;2023-04-19T06:41:25;12;12;
47810;PMS5003;33575;52.600;7.318;2023-04-19T06:43:56;10;10;
47810;PMS5003;33575;52.600;7.318;2023-04-19T06:46:26;15;14;
47810;PMS5003;33575;52.600;7.318;2023-04-19T06:48:57;11;10;
47810;PMS5003;33575;52.600;7.318;2023-04-19T06:51:28;8;8;
47810;PMS5003;33575;52.600;7.318;2023-04-19T06:53:58;10;9;
47810;PMS5003;33575;52.600;7.318;2023-04-19T06:59:00;9;9;
47810;PMS5003;33575;52.600;7.318;2023-04-19T07:01:30;12;11;
47810;PMS5003;33575;52.600;7.318;2023-04-19T07:04:01;8;8;
47810;PMS5003;33575;52.600;7.318;2023-04-19T07:06:32;8;8;
47810;PMS5003;33575;52.600;7.318;2023-04-19T07:09:03;7;7;
47810;PMS5003;33575;52.600;7.318;2023-04-19T07:11:33;7;7;
47810;PMS5003;33575;52.600;7.318;2023-04-19T07:14:04;8;7;
47810;PMS5003;33575;52.600;7.318;2023-04-19T07:16:34;8;8;
47810;PMS5003;33575;52.600;7.318;2023-04-19T07:19:05;6;6;
47810;PMS5003;33575;52.600;7.318;2023-04-19T07:21:36;7;7;
47810;PMS5003;33575;52.600;7.318;2023-04-19T07:24:06;9;7;
47810;PMS5003;33575;52.600;7.318;2023-04-19T07:26:37;7;7;
47810;PMS5003;33575;52.600;7.318;2023-04-19T07:29:08;6;6;
47810;PMS5003;33575;52.600;7.318;2023-04-19T07:31:39;5;5;
47810;PMS5003;33575;52.600;7.318;2023-04-19T07:34:09;7;6;
47810;PMS5003;33575;52.600;7.318;2023-04-19T07:36:40;6;6;
47810;PMS5003;33575;52.600;7.318;2023-04-19T07:39:10;6;5;
47810;PMS5003;33575;52.600;7.318;2023-04-19T07:41:41;4;4;
47810;PMS5003;33575;52.600;7.318;2023-04-19T07:44:12;8;5;
47810;PMS5003;33575;52.600;7.318;2023-04-19T07:46:42;5;5;
47810;PMS5003;33575;52.600;7.318;2023-04-19T07:49:13;6;4;
47810;PMS5003;33575;52.600;7.318;2023-04-19T07:51:44;5;5;
47810;PMS5003;33575;52.600;7.318;2023-04-19T07:54:15;7;6;
47810;PMS5003;33575;52.600;7.318;2023-04-19T07:56:45;7;6;
47810;PMS5003;33575;52.600;7.318;2023-04-19T07:59:15;5;5;
47810;PMS5003;33575;52.600;7.318;2023-04-19T08:01:47;6;6;
47810;PMS5003;33575;52.600;7.318;2023-04-19T08:04:18;6;6;
47810;PMS5003;33575;52.600;7.318;2023-04-19T08:06:47;10;9;
47810;PMS5003;33575;52.600;7.318;2023-04-19T08:09:18;8;7;
47810;PMS5003;33575;52.600;7.318;2023-04-19T08:11:49;6;6;
47810;PMS5003;33575;52.600;7.318;2023-04-19T08:14:24;6;6;
47810;PMS5003;33575;52.600;7.318;2023-04-19T08:16:55;7;6;
47810;PMS5003;33575;52.600;7.318;2023-04-19T08:19:20;6;6;
47810;PMS5003;33575;52.600;7.318;2023-04-19T08:21:51;9;7;
47810;PMS5003;33575;52.600;7.318;2023-04-19T08:24:22;8;7;
47810;PMS5003;33575;52.600;7.318;2023-04-19T08:26:52;7;7;
47810;PMS5003;33575;52.600;7.318;2023-04-19T08:29:23;9;8;
47810;PMS5003;33575;52.600;7.318;2023-04-19T08:31:53;8;8;
47810;PMS5003;33575;52.600;7.318;2023-04-19T08:34:24;8;8;
47810;PMS5003;33575;52.600;7.318;2023-04-19T08:36:59;9;8;
47810;PMS5003;33575;52.600;7.318;2023-04-19T08:39:30;7;7;
47810;PMS5003;33575;52.600;7.318;2023-04-19T08:42:02;6;6;
47810;PMS5003;33575;52.600;7.318;2023-04-19T08:44:31;9;8;
47810;PMS5003;33575;52.600;7.318;2023-04-19T08:46:57;8;7;
47810;PMS5003;33575;52.600;7.318;2023-04-19T08:49:27;7;7;
47810;PMS5003;33575;52.600;7.318;2023-04-19T08:51:58;6;6;
47810;PMS5003;33575;52.600;7.318;2023-04-19T08:54:29;5;5;
47810;PMS5003;33575;52.600;7.318;2023-04-19T08:57:00;9;8;
47810;PMS5003;33575;52.600;7.318;2023-04-19T08:59:30;5;5;
47810;PMS5003;33575;52.600;7.318;2023-04-19T09:02:01;9;8;
47810;PMS5003;33575;52.600;7.318;2023-04-19T09:04:36;6;6;
47810;PMS5003;33575;52.600;7.318;2023-04-19T09:07:01;7;7;
47810;PMS5003;33575;52.600;7.318;2023-04-19T09:09:37;7;7;
47810;PMS5003;33575;52.600;7.318;2023-04-19T09:12:02;8;8;
47810;PMS5003;33575;52.600;7.318;2023-04-19T09:14:33;7;7;
47810;PMS5003;33575;52.600;7.318;2023-04-19T09:24:40;7;6;
47810;PMS5003;33575;52.600;7.318;2023-04-19T09:27:06;8;7;
47810;PMS5003;33575;52.600;7.318;2023-04-19T09:29:36;6;6;
47810;PMS5003;33575;52.600;7.318;2023-04-19T09:32:07;7;7;
47810;PMS5003;33575;52.600;7.318;2023-04-19T09:34:38;9;7;
47810;PMS5003;33575;52.600;7.318;2023-04-19T09:37:13;8;8;
47810;PMS5003;33575;52.600;7.318;2023-04-19T09:39:38;6;6;
47810;PMS5003;33575;52.600;7.318;2023-04-19T09:42:09;8;7;
47810;PMS5003;33575;52.600;7.318;2023-04-19T09:49:45;6;6;
47810;PMS5003;33575;52.600;7.318;2023-04-19T09:52:12;8;6;
47810;PMS5003;33575;52.600;7.318;2023-04-19T09:54:41;5;5;
47810;PMS5003;33575;52.600;7.318;2023-04-19T09:57:13;5;5;
47810;PMS5003;33575;52.600;7.318;2023-04-19T09:59:42;6;6;
47810;PMS5003;33575;52.600;7.318;2023-04-19T10:02:13;4;4;
47810;PMS5003;33575;52.600;7.318;2023-04-19T10:04:48;6;6;
47810;PMS5003;33575;52.600;7.318;2023-04-19T10:07:17;6;5;
47810;PMS5003;33575;52.600;7.318;2023-04-19T10:09:50;8;8;
47810;PMS5003;33575;52.600;7.318;2023-04-19T10:12:20;12;11;
47810;PMS5003;33575;52.600;7.318;2023-04-19T10:14:45;7;6;
47810;PMS5003;33575;52.600;7.318;2023-04-19T10:17:16;6;6;
47810;PMS5003;33575;52.600;7.318;2023-04-19T10:19:46;4;4;
47810;PMS5003;33575;52.600;7.318;2023-04-19T10:22:17;7;7;
47810;PMS5003;33575;52.600;7.318;2023-04-19T10:27:19;8;7;
47810;PMS5003;33575;52.600;7.318;2023-04-19T10:32:19;6;5;
47810;PMS5003;33575;52.600;7.318;2023-04-19T10:34:50;6;5;
47810;PMS5003;33575;52.600;7.318;2023-04-19T10:37:21;8;7;
47810;PMS5003;33575;52.600;7.318;2023-04-19T10:39:50;8;7;
47810;PMS5003;33575;52.600;7.318;2023-04-19T10:42:20;8;7;
47810;PMS5003;33575;52.600;7.318;2023-04-19T10:49:52;5;5;
47810;PMS5003;33575;52.600;7.318;2023-04-19T10:52:25;6;4;
47810;PMS5003;33575;52.600;7.318;2023-04-19T10:54:54;5;5;
47810;PMS5003;33575;52.600;7.318;2023-04-19T10:57:23;5;5;
47810;PMS5003;33575;52.600;7.318;2023-04-19T11:02:26;6;6;
47810;PMS5003;33575;52.600;7.318;2023-04-19T11:07:25;5;5;
47810;PMS5003;33575;52.600;7.318;2023-04-19T11:09:56;5;5;
47810;PMS5003;33575;52.600;7.318;2023-04-19T11:12:26;6;6;
47810;PMS5003;33575;52.600;7.318;2023-04-19T11:14:57;7;7;
47810;PMS5003;33575;52.600;7.318;2023-04-19T11:17:28;7;7;
47810;PMS5003;33575;52.600;7.318;2023-04-19T11:19:58;5;5;
47810;PMS5003;33575;52.600;7.318;2023-04-19T11:22:29;9;7;
47810;PMS5003;33575;52.600;7.318;2023-04-19T11:27:29;7;7;
47810;PMS5003;33575;52.600;7.318;2023-04-19T11:30:01;5;5;
47810;PMS5003;33575;52.600;7.318;2023-04-19T11:32:30;6;6;
47810;PMS5003;33575;52.600;7.318;2023-04-19T11:35:04;8;6;
47810;PMS5003;33575;52.600;7.318;2023-04-19T11:37:31;8;7;
47810;PMS5003;33575;52.600;7.318;2023-04-19T11:40:05;7;7;
47810;PMS5003;33575;52.600;7.318;2023-04-19T11:42:32;7;7;
47810;PMS5003;33575;52.600;7.318;2023-04-19T11:45:03;8;8;
47810;PMS5003;33575;52.600;7.318;2023-04-19T11:47:33;7;7;
47810;PMS5003;33575;52.600;7.318;2023-04-19T11:52:34;7;7;
47810;PMS5003;33575;52.600;7.318;2023-04-19T11:57:36;7;6;
47810;PMS5003;33575;52.600;7.318;2023-04-19T12:00:06;4;4;
47810;PMS5003;33575;52.600;7.318;2023-04-19T12:02:36;4;4;
47810;PMS5003;33575;52.600;7.318;2023-04-19T12:05:07;5;5;
47810;PMS5003;33575;52.600;7.318;2023-04-19T12:07:36;7;7;
47810;PMS5003;33575;52.600;7.318;2023-04-19T12:10:07;5;4;
47810;PMS5003;33575;52.600;7.318;2023-04-19T12:12:37;5;5;
47810;PMS5003;33575;52.600;7.318;2023-04-19T12:15:08;6;6;
47810;PMS5003;33575;52.600;7.318;2023-04-19T12:20:09;6;5;
47810;PMS5003;33575;52.600;7.318;2023-04-19T12:22:39;8;7;
47810;PMS5003;33575;52.600;7.318;2023-04-19T12:25:09;7;7;
47810;PMS5003;33575;52.600;7.318;2023-04-19T12:27:40;6;6;
47810;PMS5003;33575;52.600;7.318;2023-04-19T12:30:10;6;6;
47810;PMS5003;33575;52.600;7.318;2023-04-19T12:32:40;7;7;
47810;PMS5003;33575;52.600;7.318;2023-04-19T12:35:11;6;6;
47810;PMS5003;33575;52.600;7.318;2023-04-19T12:37:41;7;7;
47810;PMS5003;33575;52.600;7.318;2023-04-19T12:40:13;7;7;
47810;PMS5003;33575;52.600;7.318;2023-04-19T12:42:42;5;5;
47810;PMS5003;33575;52.600;7.318;2023-04-19T12:45:13;7;6;
47810;PMS5003;33575;52.600;7.318;2023-04-19T12:47:44;6;6;
47810;PMS5003;33575;52.600;7.318;2023-04-19T12:50:14;6;6;
47810;PMS5003;33575;52.600;7.318;2023-04-19T12:52:44;7;7;
47810;PMS5003;33575;52.600;7.318;2023-04-19T12:55:15;7;7;
47810;PMS5003;33575;52.600;7.318;2023-04-19T12:57:45;7;7;
47810;PMS5003;33575;52.600;7.318;2023-04-19T13:00:16;8;8;
47810;PMS5003;33575;52.600;7.318;2023-04-19T13:02:46;8;7;
47810;PMS5003;33575;52.600;7.318;2023-04-19T13:05:16;7;7;
47810;PMS5003;33575;52.600;7.318;2023-04-19T13:07:47;7;7;
47810;PMS5003;33575;52.600;7.318;2023-04-19T13:10:17;8;7;
47810;PMS5003;33575;52.600;7.318;2023-04-19T13:12:48;7;7;
47810;PMS5003;33575;52.600;7.318;2023-04-19T13:15:18;5;5;
47810;PMS5003;33575;52.600;7.318;2023-04-19T13:17:49;6;6;
47810;PMS5003;33575;52.600;7.318;2023-04-19T13:20:19;7;6;
47810;PMS5003;33575;52.600;7.318;2023-04-19T13:22:50;8;8;
47810;PMS5003;33575;52.600;7.318;2023-04-19T13:25:20;7;7;
47810;PMS5003;33575;52.600;7.318;2023-04-19T13:27:50;9;7;
47810;PMS5003;33575;52.600;7.318;2023-04-19T13:30:21;6;6;
47810;PMS5003;33575;52.600;7.318;2023-04-19T13:32:52;5;5;
47810;PMS5003;33575;52.600;7.318;2023-04-19T13:35:22;6;6;
47810;PMS5003;33575;52.600;7.318;2023-04-19T13:37:52;7;5;
47810;PMS5003;33575;52.600;7.318;2023-04-19T13:40:23;6;6;
47810;PMS5003;33575;52.600;7.318;2023-04-19T13:42:53;7;6;
47810;PMS5003;33575;52.600;7.318;2023-04-19T13:45:24;10;9;
47810;PMS5003;33575;52.600;7.318;2023-04-19T13:47:54;7;6;
47810;PMS5003;33575;52.600;7.318;2023-04-19T13:50:25;6;5;
47810;PMS5003;33575;52.600;7.318;2023-04-19T13:52:55;5;5;
47810;PMS5003;33575;52.600;7.318;2023-04-19T13:55:25;6;5;
47810;PMS5003;33575;52.600;7.318;2023-04-19T13:57:56;5;5;
47810;PMS5003;33575;52.600;7.318;2023-04-19T14:00:26;5;5;
47810;PMS5003;33575;52.600;7.318;2023-04-19T14:02:57;5;5;
47810;PMS5003;33575;52.600;7.318;2023-04-19T14:05:27;6;5;
47810;PMS5003;33575;52.600;7.318;2023-04-19T14:07:58;4;4;
47810;PMS5003;33575;52.600;7.318;2023-04-19T14:10:28;6;6;
47810;PMS5003;33575;52.600;7.318;2023-04-19T14:12:59;6;5;
47810;PMS5003;33575;52.600;7.318;2023-04-19T14:15:29;5;5;
47810;PMS5003;33575;52.600;7.318;2023-04-19T14:17:59;7;6;
47810;PMS5003;33575;52.600;7.318;2023-04-19T14:20:30;5;5;
47810;PMS5003;33575;52.600;7.318;2023-04-19T14:23:00;6;6;
47810;PMS5003;33575;52.600;7.318;2023-04-19T14:25:31;3;3;
47810;PMS5003;33575;52.600;7.318;2023-04-19T14:28:01;4;4;
47810;PMS5003;33575;52.600;7.318;2023-04-19T14:30:31;5;5;
47810;PMS5003;33575;52.600;7.318;2023-04-19T14:33:02;5;5;
47810;PMS5003;33575;52.600;7.318;2023-04-19T14:35:32;9;8;
47810;PMS5003;33575;52.600;7.318;2023-04-19T14:38:03;6;6;
47810;PMS5003;33575;52.600;7.318;2023-04-19T14:40:33;5;5;
47810;PMS5003;33575;52.600;7.318;2023-04-19T14:43:04;4;4;
47810;PMS5003;33575;52.600;7.318;2023-04-19T14:45:34;6;6;
47810;PMS5003;33575;52.600;7.318;2023-04-19T14:48:05;6;6;
47810;PMS5003;33575;52.600;7.318;2023-04-19T14:50:35;7;7;
47810;PMS5003;33575;52.600;7.318;2023-04-19T14:53:05;5;5;
47810;PMS5003;33575;52.600;7.318;2023-04-19T14:55:36;4;3;
47810;PMS5003;33575;52.600;7.318;2023-04-19T14:58:06;3;2;
47810;PMS5003;33575;52.600;7.318;2023-04-19T15:00:37;4;4;
47810;PMS5003;33575;52.600;7.318;2023-04-19T15:03:07;5;4;
47810;PMS5003;33575;52.600;7.318;2023-04-19T15:05:38;4;4;
47810;PMS5003;33575;52.600;7.318;2023-04-19T15:08:13;8;7;
47810;PMS5003;33575;52.600;7.318;2023-04-19T15:10:39;6;5;
47810;PMS5003;33575;52.600;7.318;2023-04-19T15:13:08;7;7;
47810;PMS5003;33575;52.600;7.318;2023-04-19T15:15:39;6;6;
47810;PMS5003;33575;52.600;7.318;2023-04-19T15:18:09;8;6;
47810;PMS5003;33575;52.600;7.318;2023-04-19T15:20:40;5;5;
47810;PMS5003;33575;52.600;7.318;2023-04-19T15:23:10;6;5;
47810;PMS5003;33575;52.600;7.318;2023-04-19T15:25:40;7;6;
47810;PMS5003;33575;52.600;7.318;2023-04-19T15:28:11;5;5;
47810;PMS5003;33575;52.600;7.318;2023-04-19T15:30:41;8;8;
47810;PMS5003;33575;52.600;7.318;2023-04-19T15:33:12;8;8;
47810;PMS5003;33575;52.600;7.318;2023-04-19T15:35:42;7;6;
47810;PMS5003;33575;52.600;7.318;2023-04-19T15:38:13;7;6;
47810;PMS5003;33575;52.600;7.318;2023-04-19T15:40:43;11;11;
47810;PMS5003;33575;52.600;7.318;2023-04-19T15:43:14;12;11;
47810;PMS5003;33575;52.600;7.318;2023-04-19T15:45:44;13;13;
47810;PMS5003;33575;52.600;7.318;2023-04-19T15:48:15;15;15;
47810;PMS5003;33575;52.600;7.318;2023-04-19T15:50:45;19;18;
47810;PMS5003;33575;52.600;7.318;2023-04-19T15:53:16;17;17;
47810;PMS5003;33575;52.600;7.318;2023-04-19T15:55:46;8;8;
47810;PMS5003;33575;52.600;7.318;2023-04-19T15:58:17;6;6;
47810;PMS5003;33575;52.600;7.318;2023-04-19T16:00:47;7;7;
47810;PMS5003;33575;52.600;7.318;2023-04-19T16:03:18;7;7;
47810;PMS5003;33575;52.600;7.318;2023-04-19T16:05:48;9;8;
47810;PMS5003;33575;52.600;7.318;2023-04-19T16:08:19;7;7;
47810;PMS5003;33575;52.600;7.318;2023-04-19T16:10:49;9;7;
47810;PMS5003;33575;52.600;7.318;2023-04-19T16:13:19;7;7;
47810;PMS5003;33575;52.600;7.318;2023-04-19T16:15:50;8;8;
47810;PMS5003;33575;52.600;7.318;2023-04-19T16:18:21;7;6;
47810;PMS5003;33575;52.600;7.318;2023-04-19T16:20:51;9;9;
47810;PMS5003;33575;52.600;7.318;2023-04-19T16:23:22;10;10;
47810;PMS5003;33575;52.600;7.318;2023-04-19T16:25:52;18;18;
47810;PMS5003;33575;52.600;7.318;2023-04-19T16:28:22;12;12;
47810;PMS5003;33575;52.600;7.318;2023-04-19T16:30:53;10;10;
47810;PMS5003;33575;52.600;7.318;2023-04-19T16:33:23;11;11;
47810;PMS5003;33575;52.600;7.318;2023-04-19T16:35:54;14;12;
47810;PMS5003;33575;52.600;7.318;2023-04-19T16:38:24;12;12;
47810;PMS5003;33575;52.600;7.318;2023-04-19T16:40:55;9;8;
47810;PMS5003;33575;52.600;7.318;2023-04-19T16:43:25;7;7;
47810;PMS5003;33575;52.600;7.318;2023-04-19T16:45:56;14;11;
47810;PMS5003;33575;52.600;7.318;2023-04-19T16:48:26;11;9;
47810;PMS5003;33575;52.600;7.318;2023-04-19T16:50:57;8;8;
47810;PMS5003;33575;52.600;7.318;2023-04-19T16:53:29;9;9;
47810;PMS5003;33575;52.600;7.318;2023-04-19T16:55:59;9;9;
47810;PMS5003;33575;52.600;7.318;2023-04-19T16:58:29;11;10;
47810;PMS5003;33575;52.600;7.318;2023-04-19T17:00:59;10;10;
47810;PMS5003;33575;52.600;7.318;2023-04-19T17:03:30;10;10;
47810;PMS5003;33575;52.600;7.318;2023-04-19T17:06:00;10;10;
47810;PMS5003;33575;52.600;7.318;2023-04-19T17:08:30;11;11;
47810;PMS5003;33575;52.600;7.318;2023-04-19T17:11:01;12;9;
47810;PMS5003;33575;52.600;7.318;2023-04-19T17:13:31;9;9;
47810;PMS5003;33575;52.600;7.318;2023-04-19T17:16:02;14;13;
47810;PMS5003;33575;52.600;7.318;2023-04-19T17:18:32;11;10;
47810;PMS5003;33575;52.600;7.318;2023-04-19T17:21:03;8;7;
47810;PMS5003;33575;52.600;7.318;2023-04-19T17:23:33;12;11;
47810;PMS5003;33575;52.600;7.318;2023-04-19T17:26:04;11;9;
47810;PMS5003;33575;52.600;7.318;2023-04-19T17:28:35;12;11;
47810;PMS5003;33575;52.600;7.318;2023-04-19T17:31:05;10;10;
47810;PMS5003;33575;52.600;7.318;2023-04-19T17:33:36;11;10;
47810;PMS5003;33575;52.600;7.318;2023-04-19T17:36:06;11;11;
47810;PMS5003;33575;52.600;7.318;2023-04-19T17:38:37;8;8;